Station info - map view · info · telemetry · weather · raw · status · beacons · messages · bulletins · browse · moving · my account
Callsign, ship name or locator: Clear       
It is possible to search using wildcards (*?) after a prefix. Example: OH*
APRS station KG7BMQ-9 - show graphs
Map loading...
Comment: Semper Fi
Mic-E message: Special
Location: 46°12.78' N 119°12.58' W - locator DN06JF41UC - show map - static map
2.6 miles Southwest bearing 210° from West Pasco, Franklin County, Washington, United States [?]
3.5 miles West bearing 272° from Kennewick, Benton County, Washington, United States
6.2 miles Southeast bearing 145° from Richland, Benton County, Washington, United States
67.3 miles Southeast bearing 113° from Yakima, Yakima County, Washington, United States
Last position: 2019-02-14 17:52:55 EST (3d 8h9m ago)
2019-02-14 14:52:55 PST local time at West Pasco, United States [?]
Altitude: 541 ft
Course: 214°
Device: Yaesu: FTM-400DR (rig)
Last path: KG7BMQ-9>4V1RWX via MISION,WIDE1*,qAO,CRYSTL (good)
Positions stored: 13623
Packet rate: 459 seconds between packets on average during 6879 seconds.
Stations near current position of KG7BMQ-9 - show more
callsign distance last heard - EST      callsign distance last heard - EST
K7IBC1.1 miles 247°2019-02-18 02:00:04 N7QXO-141.5 miles 319°2019-02-17 21:01:22
EW84141.8 miles 74°2019-02-18 02:00:30 AF7QD-91.9 miles 138°2019-01-26 15:41:08
WB7JON2.2 miles 84°2019-02-16 23:20:55 WB7JON-N2.2 miles 84°2019-02-18 02:02:23
WF7S-R2.2 miles 83°2019-02-18 01:58:13 KB7DZR-92.4 miles 140°2019-02-17 17:57:43
KG7FOF-72.6 miles 305°2019-02-10 19:30:29 KI7SI-53.2 miles 298°2019-01-31 17:27:21
KI7SI B3.3 miles 299°2019-01-31 17:16:35 KI7SI-B3.3 miles 299°2019-01-31 17:16:45
KI7SI-103.3 miles 299°2019-02-18 01:41:03 KI7SI-73.3 miles 299°2019-01-21 19:35:27
DW65613.3 miles 151°2019-02-18 02:00:13 KG7QJD3.7 miles 146°2019-01-28 10:15:41
K7EP-N3.7 miles 36°2019-02-18 02:02:31 KG6JNY-143.9 miles 335°2019-02-17 02:10:24
AD7CQ4.5 miles 22°2019-02-18 02:01:50 AD7CQ-94.5 miles 22°2019-02-17 16:37:54
Stations which heard KG7BMQ-9 directly on radio –
callsign pkts first heard - EST last heard longest (tx => rx) longest at - EST
LARCH 8 2019-02-01 13:41:08 2019-02-01 19:53:53 CN85QM > CN85UR 20.0 miles 49° 2019-02-01 14:05:24
JUNIPR 10 2019-02-01 11:20:40 2019-02-01 21:40:44 CN95WS > CN95PR 29.6 miles 266° 2019-02-01 21:40:44
MISION 164 2019-02-01 09:37:39 2019-02-14 17:52:55 DN06JD > CN97TG 97.6 miles 325° 2019-02-01 22:46:17
WA2WA 13 2019-02-01 09:40:56 2019-02-14 16:55:30 DN06IH > DN06XB 63.3 miles 105° 2019-02-04 17:56:32
W7GC-4 2 2019-02-01 15:33:22 2019-02-01 17:23:59 CN85NE > CN85CF 44.8 miles 272° 2019-02-01 17:23:59
ALAKES 22 2019-02-03 13:37:03 2019-02-10 18:56:00 DN06FN > DN04VX 126.3 miles 150° 2019-02-06 19:03:18
W7IG 6 2019-02-01 15:49:48 2019-02-01 17:21:58 CN85NE > CN85HC 26.1 miles 263° 2019-02-01 17:21:58
PROSSR 17 2019-02-04 17:06:55 2019-02-11 06:54:05 DN06IK > DN06CE 29.4 miles 235° 2019-02-06 06:40:07
W7YAM-5 1 2019-02-01 15:43:34 2019-02-01 15:43:34 CN85MB > CN85KD 10.3 miles 315° 2019-02-01 15:43:34
BALDPK 6 2019-02-01 15:17:09 2019-02-01 18:21:09 CN85PJ > CN85LJ 14.6 miles 267° 2019-02-01 15:17:09
KF7WRS-10 9 2019-02-01 18:39:20 2019-02-01 19:36:41 CN85RN > CN85QL 7.4 miles 221° 2019-02-01 19:19:54
NA7Q-9 47 2019-02-01 14:17:21 2019-02-01 19:41:44 CN85OI > CN85QL 11.0 miles 34° 2019-02-01 17:36:05
BEAVRT 4 2019-02-01 17:34:04 2019-02-01 19:34:17 CN85RN > CN85OK 17.1 miles 242° 2019-02-01 19:34:17
N7AWM 25 2019-02-01 11:57:09 2019-02-01 20:54:27 CN95EQ > CN95JP 20.3 miles 99° 2019-02-01 13:14:54
SADDLE 3 2019-02-01 16:06:13 2019-02-01 20:01:57 CN85VN > CN85HN 58.4 miles 270° 2019-02-01 20:01:57
K7RMO-1 2 2019-02-01 15:25:18 2019-02-01 15:37:24 CN85ND > CN85MI 14.7 miles 358° 2019-02-01 15:37:24
KF7FMI-10 49 2019-02-01 10:16:07 2019-02-06 19:36:30 CN95XS > DN06GD 38.9 miles 49° 2019-02-01 11:14:36
MSCOTT 3 2019-02-01 13:37:06 2019-02-01 19:17:21 CN84LX > CN85RK 40.2 miles 34° 2019-02-01 17:03:06
MKSRDG 6 2019-02-01 15:48:11 2019-02-01 17:07:11 CN85LA > CN84PK 42.1 miles 160° 2019-02-01 15:48:11
WA7SUP 24 2019-02-01 15:39:28 2019-02-01 18:51:27 CN84LX > CN85MH 24.2 miles 10° 2019-02-01 17:05:10
NPLNS 3 2019-02-01 15:29:19 2019-02-01 18:13:45 CN85OE > CN85MP 30.1 miles 344° 2019-02-01 15:31:20
AA7AZ-1 25 2019-02-01 10:20:09 2019-02-10 18:57:04 DN06KF > DN05IT 26.8 miles 192° 2019-02-10 18:57:04
N7QME-3 8 2019-02-01 14:16:03 2019-02-01 19:47:46 CN85SM > CN85QO 8.2 miles 307° 2019-02-01 19:47:46
AG7QR-10 11 2019-02-01 12:29:04 2019-02-01 20:38:15 CN95DQ > CN95FQ 8.2 miles 84° 2019-02-01 20:24:07

Only position packets which were originated by the station are shown here. The range statistics show some extra long hops, because some digipeaters do not correctly add themselves to the digipeater path. Please check the raw packets.
About this site
This page shows real-time information collected from the Automatic Position Reporting System Internet network (APRS-IS). APRS is used by amateur (ham) radio operators to transmit real-time position information, weather data, telemetry and messages over the radio. A vehicle equipped with a GPS receiver, a VHF transmitter or HF transceiver and a small computer device called a tracker transmits it's location, speed and course in a small data packet, which is then received by a nearby iGate receiving site which forwards the packet on the Internet. Systems connected to the Internet can send information on the APRS-IS without a radio transmitter, or collect and display information transmitted anywhere in the world.
FAQ · Blog · Discussion group · Linking to aprs.fi · AIS sites · Service status · Database statistics · Advertising on aprs.fi · Technical details · API · Change log · Planned changes · Credits and thanks · Terms Of Service · iPhone/iPad APRS